createdAt,value
2022-11-24T00:00:51.284Z,20.70
2022-11-24T00:03:18.075Z,19.02
2022-11-24T00:05:44.563Z,18.98
2022-11-24T00:08:11.874Z,19.23
2022-11-24T00:10:38.262Z,22.45
2022-11-24T00:13:04.636Z,13.20
2022-11-24T00:15:31.008Z,14.90
2022-11-24T00:17:57.463Z,14.70
2022-11-24T00:20:23.845Z,12.38
2022-11-24T00:22:50.232Z,18.10
2022-11-24T00:25:16.683Z,16.92
2022-11-24T00:27:43.088Z,15.23
2022-11-24T00:30:09.872Z,15.98
2022-11-24T00:32:36.239Z,19.35
2022-11-24T00:35:02.684Z,17.45
2022-11-24T00:37:29.105Z,17.15
2022-11-24T00:39:55.490Z,18.77
2022-11-24T00:42:21.867Z,10.32
2022-11-24T00:44:48.239Z,16.83
2022-11-24T00:47:14.750Z,14.80
2022-11-24T00:49:41.202Z,18.48
2022-11-24T00:52:07.605Z,15.88
2022-11-24T00:54:34.311Z,12.23
2022-11-24T00:57:01.049Z,10.98
2022-11-24T00:59:27.466Z,13.60
2022-11-24T01:01:53.864Z,14.95
2022-11-24T01:04:20.351Z,14.68
2022-11-24T01:06:46.813Z,18.15
2022-11-24T01:09:13.198Z,15.55
2022-11-24T01:11:58.245Z,15.73
2022-11-24T01:14:25.108Z,15.60
2022-11-24T01:16:51.673Z,22.20
2022-11-24T01:19:18.406Z,13.25
2022-11-24T01:21:44.972Z,10.23
2022-11-24T01:24:11.847Z,16.05
2022-11-24T01:26:38.444Z,21.90
2022-11-24T01:29:04.853Z,14.73
2022-11-24T01:31:32.921Z,16.05
2022-11-24T01:33:59.361Z,14.45
2022-11-24T01:36:25.783Z,15.88
2022-11-24T01:38:52.194Z,19.27
2022-11-24T01:41:21.330Z,22.73
2022-11-24T01:43:48.607Z,15.82
2022-11-24T01:46:18.460Z,16.48
2022-11-24T01:51:34.479Z,11.10
2022-11-24T01:54:07.760Z,13.02
2022-11-24T01:56:35.471Z,16.42
2022-11-24T01:59:03.231Z,12.52
2022-11-24T02:01:31.417Z,13.13
2022-11-24T02:03:58.372Z,10.10
2022-11-24T02:06:29.895Z,16.30
2022-11-24T02:09:13.718Z,16.20
2022-11-24T02:11:40.379Z,11.38
2022-11-24T02:14:09.466Z,11.18
2022-11-24T02:16:36.623Z,12.18
2022-11-24T02:19:06.495Z,9.13
2022-11-24T02:21:32.879Z,13.48
2022-11-24T02:24:04.112Z,7.88
2022-11-24T02:26:46.282Z,12.63
2022-11-24T02:29:14.254Z,10.30
2022-11-24T02:32:01.320Z,13.35
2022-11-24T02:34:27.996Z,11.38
2022-11-24T02:36:54.396Z,14.45
2022-11-24T02:39:20.862Z,13.07
2022-11-24T02:41:52.343Z,9.65
2022-11-24T02:44:20.526Z,13.68
2022-11-24T02:46:46.910Z,11.27
2022-11-24T02:49:13.289Z,10.43
2022-11-24T02:51:39.712Z,15.98
2022-11-24T02:54:06.097Z,11.93
2022-11-24T02:56:32.525Z,12.13
2022-11-24T02:58:58.897Z,17.95
2022-11-24T03:01:25.358Z,12.45
2022-11-24T03:03:51.784Z,11.85
2022-11-24T03:06:18.171Z,13.63
2022-11-24T03:08:44.760Z,10.40
2022-11-24T03:11:11.123Z,9.30
2022-11-24T03:13:37.495Z,12.68
2022-11-24T03:16:08.490Z,14.50
2022-11-24T03:18:34.927Z,9.38
2022-11-24T03:21:01.368Z,11.90
2022-11-24T03:23:27.792Z,13.77
2022-11-24T03:25:54.908Z,9.00
2022-11-24T03:28:21.273Z,6.38
2022-11-24T03:30:50.951Z,12.02
2022-11-24T03:33:17.353Z,7.05
2022-11-24T03:35:43.930Z,7.32
2022-11-24T03:38:10.355Z,10.85
2022-11-24T03:40:36.737Z,13.60
2022-11-24T03:43:03.115Z,10.75
2022-11-24T03:45:45.434Z,8.35
2022-11-24T03:48:13.199Z,11.15
2022-11-24T03:50:39.682Z,10.82
2022-11-24T03:53:06.061Z,7.30
2022-11-24T03:55:32.442Z,7.75
2022-11-24T03:57:58.814Z,7.55
2022-11-24T04:00:25.207Z,7.25
2022-11-24T04:02:51.619Z,6.35
2022-11-24T04:05:18.103Z,9.15
2022-11-24T04:07:44.547Z,13.70
2022-11-24T04:10:11.125Z,10.27
2022-11-24T04:12:46.500Z,9.07
2022-11-24T04:15:15.431Z,10.05
2022-11-24T04:17:42.008Z,10.90
2022-11-24T04:20:09.464Z,9.45
2022-11-24T04:22:35.818Z,10.93
2022-11-24T04:25:02.651Z,10.95
2022-11-24T04:27:29.143Z,12.77
2022-11-24T04:29:55.519Z,10.85
2022-11-24T04:32:21.928Z,11.77
2022-11-24T04:34:48.283Z,10.40
2022-11-24T04:37:14.673Z,14.45
2022-11-24T04:39:41.126Z,11.27
2022-11-24T04:42:07.500Z,15.38
2022-11-24T04:44:34.273Z,14.23
2022-11-24T04:47:01.283Z,13.07
2022-11-24T04:49:27.755Z,9.20
2022-11-24T04:51:54.123Z,11.02
2022-11-24T04:54:20.545Z,11.55
2022-11-24T04:56:50.320Z,15.13
2022-11-24T04:59:17.218Z,6.57
2022-11-24T05:01:44.518Z,10.27
2022-11-24T05:04:11.979Z,10.15
2022-11-24T05:06:38.611Z,8.20
2022-11-24T05:09:17.739Z,8.95
2022-11-24T05:11:44.294Z,5.53
2022-11-24T05:14:10.698Z,8.88
2022-11-24T05:16:37.739Z,7.72
2022-11-24T05:19:04.222Z,9.20
2022-11-24T05:21:30.619Z,7.97
2022-11-24T05:23:56.983Z,9.02
2022-11-24T05:26:23.369Z,9.10
2022-11-24T05:28:49.775Z,6.85
2022-11-24T05:31:16.213Z,6.85
2022-11-24T05:33:43.239Z,7.65
2022-11-24T05:36:29.843Z,7.68
2022-11-24T05:38:56.207Z,6.60
2022-11-24T05:41:22.708Z,6.85
2022-11-24T05:43:49.103Z,11.48
2022-11-24T05:46:15.578Z,3.42
2022-11-24T05:48:42.014Z,3.80
2022-11-24T05:51:09.488Z,3.55
2022-11-24T05:53:36.104Z,6.13
2022-11-24T05:56:03.881Z,4.93
2022-11-24T05:58:30.240Z,4.93
2022-11-24T06:00:56.661Z,4.55
2022-11-24T06:03:23.660Z,5.50
2022-11-24T06:05:50.083Z,2.45
2022-11-24T06:08:16.519Z,4.97
2022-11-24T06:10:42.934Z,2.90
2022-11-24T06:13:09.383Z,2.80
2022-11-24T06:15:37.557Z,5.38
2022-11-24T06:18:04.044Z,3.55
2022-11-24T06:20:32.906Z,2.78
2022-11-24T06:23:00.059Z,2.90
2022-11-24T06:25:26.699Z,3.15
2022-11-24T06:27:53.124Z,4.53
2022-11-24T06:30:19.617Z,2.78
2022-11-24T06:32:49.383Z,3.25
2022-11-24T06:35:16.452Z,3.30
2022-11-24T06:37:42.815Z,3.10
2022-11-24T06:40:09.684Z,4.05
2022-11-24T06:42:37.130Z,4.97
2022-11-24T06:45:08.806Z,3.70
2022-11-24T06:47:35.940Z,2.92
2022-11-24T06:50:02.689Z,4.57
2022-11-24T06:52:29.047Z,5.30
2022-11-24T06:54:55.534Z,3.60
2022-11-24T06:57:21.984Z,6.15
2022-11-24T06:59:48.470Z,5.70
2022-11-24T07:02:14.921Z,7.47
2022-11-24T07:04:41.266Z,5.65
2022-11-24T07:07:07.737Z,5.60
2022-11-24T07:09:34.227Z,6.93
2022-11-24T07:12:02.241Z,6.68
2022-11-24T07:14:28.602Z,6.53
2022-11-24T07:16:55.085Z,7.70
2022-11-24T07:19:24.852Z,6.47
2022-11-24T07:21:51.673Z,6.53
2022-11-24T07:24:18.041Z,8.55
2022-11-24T07:26:44.434Z,7.50
2022-11-24T07:29:10.796Z,7.63
2022-11-24T07:31:37.202Z,6.95
2022-11-24T07:34:03.669Z,7.85
2022-11-24T07:36:30.099Z,8.10
2022-11-24T07:38:56.546Z,10.50
2022-11-24T07:41:23.003Z,9.07
2022-11-24T07:43:49.512Z,9.23
2022-11-24T07:46:18.884Z,7.63
2022-11-24T07:48:45.832Z,8.95
2022-11-24T07:51:12.652Z,9.10
2022-11-24T07:53:39.219Z,7.07
2022-11-24T07:56:06.294Z,6.45
2022-11-24T07:58:35.891Z,6.60
2022-11-24T08:01:13.221Z,7.15
2022-11-24T08:03:39.978Z,10.52
2022-11-24T08:08:53.144Z,7.82
2022-11-24T08:11:19.659Z,7.78
2022-11-24T08:13:46.144Z,5.90
2022-11-24T08:16:15.015Z,9.50
2022-11-24T08:18:41.731Z,8.68
2022-11-24T08:21:12.195Z,8.10
2022-11-24T08:23:38.751Z,7.47
2022-11-24T08:26:08.678Z,7.28
2022-11-24T08:28:35.854Z,8.63
2022-11-24T08:31:10.483Z,10.18
2022-11-24T08:33:37.215Z,9.68
2022-11-24T08:36:05.464Z,10.45
2022-11-24T08:38:32.251Z,10.32
2022-11-24T08:41:11.476Z,7.72
2022-11-24T08:43:38.573Z,9.65
2022-11-24T08:46:07.257Z,8.95
2022-11-24T08:48:34.191Z,8.88
2022-11-24T08:51:07.217Z,12.43
2022-11-24T08:53:34.657Z,8.88
2022-11-24T08:56:01.352Z,8.65
2022-11-24T08:58:31.469Z,9.95
2022-11-24T09:01:09.802Z,11.70
2022-11-24T09:03:37.537Z,10.27
2022-11-24T09:06:04.138Z,13.52
2022-11-24T09:08:31.427Z,9.98
2022-11-24T09:11:17.099Z,9.27
2022-11-24T09:13:43.811Z,10.90
2022-11-24T09:16:21.695Z,11.70
2022-11-24T09:18:48.576Z,8.45
2022-11-24T09:21:18.111Z,8.10
2022-11-24T09:23:46.177Z,8.45
2022-11-24T09:26:20.877Z,9.00
2022-11-24T09:28:48.059Z,8.05
2022-11-24T09:31:16.753Z,8.23
2022-11-24T09:33:43.782Z,9.85
2022-11-24T09:36:10.472Z,8.55
2022-11-24T09:38:37.082Z,15.60
2022-11-24T09:41:34.553Z,8.48
2022-11-24T09:44:23.742Z,8.65
2022-11-24T09:47:02.941Z,10.18
2022-11-24T09:49:48.486Z,8.43
2022-11-24T09:52:22.212Z,10.48
2022-11-24T09:54:56.682Z,8.18
2022-11-24T09:57:25.875Z,10.70
2022-11-24T09:59:52.307Z,9.88
2022-11-24T10:02:18.773Z,14.30
2022-11-24T10:04:46.519Z,10.00
2022-11-24T10:07:21.166Z,10.57
2022-11-24T10:10:09.571Z,6.13
2022-11-24T10:13:05.158Z,9.75
2022-11-24T10:15:57.258Z,11.85
2022-11-24T10:19:00.870Z,9.88
2022-11-24T10:21:51.147Z,10.25
2022-11-24T10:24:20.443Z,7.40
2022-11-24T10:26:51.910Z,14.50
2022-11-24T10:29:24.947Z,11.50
2022-11-24T10:31:54.256Z,9.55
2022-11-24T10:34:34.437Z,11.23
2022-11-24T10:37:34.679Z,8.68
2022-11-24T10:40:40.605Z,10.25
2022-11-24T10:43:01.260Z,9.57
2022-11-24T10:45:28.902Z,9.05
2022-11-24T10:47:55.637Z,9.70
2022-11-24T10:50:23.841Z,8.35
2022-11-24T10:53:08.555Z,10.48
2022-11-24T10:55:56.764Z,9.20
2022-11-24T10:58:42.642Z,11.40
2022-11-24T11:01:15.336Z,8.68
2022-11-24T11:03:49.482Z,12.35
2022-11-24T11:06:25.660Z,7.43
2022-11-24T11:09:24.704Z,12.70
2022-11-24T11:11:53.130Z,12.95
2022-11-24T11:14:31.169Z,10.35
2022-11-24T11:16:58.003Z,9.82
2022-11-24T11:19:54.233Z,12.45
2022-11-24T11:22:29.179Z,10.05
2022-11-24T11:25:41.042Z,12.00
2022-11-24T11:28:28.598Z,11.40
2022-11-24T11:31:18.110Z,13.52
2022-11-24T11:34:04.585Z,11.52
2022-11-24T11:36:33.617Z,12.45
2022-11-24T11:39:00.071Z,16.33
2022-11-24T11:41:31.637Z,14.10
2022-11-24T11:44:21.605Z,12.75
2022-11-24T11:46:48.179Z,12.10
2022-11-24T11:49:14.691Z,10.90
2022-11-24T11:51:52.975Z,10.50
2022-11-24T11:54:34.724Z,13.40
2022-11-24T11:57:24.855Z,13.50
2022-11-24T12:00:08.065Z,12.38
2022-11-24T12:02:51.700Z,13.07
2022-11-24T12:05:53.926Z,11.55
2022-11-24T12:08:56.025Z,11.60
2022-11-24T12:11:33.009Z,13.00
2022-11-24T12:14:31.504Z,13.02
2022-11-24T12:17:07.545Z,12.68
2022-11-24T12:19:45.485Z,12.80
2022-11-24T12:22:39.083Z,12.25
2022-11-24T12:25:28.130Z,11.80
2022-11-24T12:28:24.359Z,12.85
2022-11-24T12:31:06.961Z,15.70
2022-11-24T12:33:52.374Z,10.52
2022-11-24T12:36:35.670Z,11.07
2022-11-24T12:39:07.000Z,13.70
2022-11-24T12:41:53.082Z,15.25
2022-11-24T12:44:30.959Z,11.80
2022-11-24T12:47:30.798Z,15.38
2022-11-24T12:50:14.131Z,12.90
2022-11-24T12:52:58.675Z,12.68
2022-11-24T12:55:26.537Z,12.68
2022-11-24T12:58:11.200Z,14.63
2022-11-24T13:01:08.327Z,15.48
2022-11-24T13:03:46.374Z,13.60
2022-11-24T13:06:23.730Z,9.70
2022-11-24T13:08:50.173Z,14.40
2022-11-24T13:11:25.171Z,13.48
2022-11-24T13:14:04.713Z,13.15
2022-11-24T13:16:48.530Z,14.77
2022-11-24T13:19:20.932Z,11.98
2022-11-24T13:21:51.706Z,14.25
2022-11-24T13:24:19.264Z,25.27
2022-11-24T13:26:48.943Z,16.67
2022-11-24T13:29:25.492Z,15.77
2022-11-24T13:31:52.226Z,12.77
2022-11-24T13:34:40.514Z,12.50
2022-11-24T13:37:31.459Z,15.38
2022-11-24T13:40:14.217Z,15.63
2022-11-24T13:43:12.726Z,15.32
2022-11-24T13:45:39.061Z,12.88
2022-11-24T13:48:21.492Z,13.77
2022-11-24T13:50:51.871Z,15.52
2022-11-24T13:53:33.311Z,13.55
2022-11-24T13:56:02.641Z,11.60
2022-11-24T13:58:35.982Z,14.57
2022-11-24T14:01:07.220Z,15.73
2022-11-24T14:03:47.533Z,10.82
2022-11-24T14:06:40.383Z,15.02
2022-11-24T14:09:27.008Z,13.40
2022-11-24T14:12:12.181Z,13.02
2022-11-24T14:14:39.185Z,13.20
2022-11-24T14:17:19.765Z,13.80
2022-11-24T14:19:53.997Z,12.48
2022-11-24T14:22:21.825Z,13.93
2022-11-24T14:24:53.035Z,14.90
2022-11-24T14:27:26.664Z,9.88
2022-11-24T14:29:58.529Z,18.50
2022-11-24T14:32:25.047Z,13.77
2022-11-24T14:34:52.116Z,11.65
2022-11-24T14:37:19.571Z,18.85
2022-11-24T14:39:46.501Z,13.50
2022-11-24T14:42:23.060Z,14.18
2022-11-24T14:44:58.654Z,12.85
2022-11-24T14:47:33.771Z,15.85
2022-11-24T14:50:19.212Z,13.90
2022-11-24T14:52:55.654Z,16.35
2022-11-24T14:55:30.359Z,12.73
2022-11-24T14:57:57.404Z,14.85
2022-11-24T15:00:28.434Z,16.08
2022-11-24T15:03:08.454Z,9.20
2022-11-24T15:05:55.622Z,11.35
2022-11-24T15:08:24.230Z,13.05
2022-11-24T15:10:57.328Z,14.65
2022-11-24T15:13:24.499Z,13.32
2022-11-24T15:16:17.295Z,21.38
2022-11-24T15:18:46.734Z,18.00
2022-11-24T15:21:18.925Z,14.95
2022-11-24T15:24:14.091Z,17.98
2022-11-24T15:29:10.241Z,13.63
2022-11-24T15:31:37.316Z,12.45
2022-11-24T15:34:03.853Z,14.40
2022-11-24T15:36:30.225Z,17.55
2022-11-24T15:38:56.578Z,17.63
2022-11-24T15:41:29.063Z,16.25
2022-11-24T15:43:59.091Z,10.05
2022-11-24T15:46:27.095Z,12.55
2022-11-24T15:48:53.961Z,13.60
2022-11-24T15:51:20.883Z,16.02
2022-11-24T15:53:51.172Z,13.57
2022-11-24T15:56:25.366Z,13.55
2022-11-24T15:58:52.698Z,15.13
2022-11-24T16:01:20.653Z,16.10
2022-11-24T16:03:48.660Z,14.95
2022-11-24T16:06:24.073Z,14.60
2022-11-24T16:08:52.072Z,11.68
2022-11-24T16:11:18.440Z,11.20
2022-11-24T16:13:50.316Z,20.52
2022-11-24T16:16:19.642Z,11.85
2022-11-24T16:18:46.125Z,13.82
2022-11-24T16:21:12.504Z,15.23
2022-11-24T16:23:38.920Z,16.15
2022-11-24T16:26:06.856Z,15.57
2022-11-24T16:28:33.243Z,12.25
2022-11-24T16:30:59.692Z,11.20
2022-11-24T16:33:26.144Z,12.30
2022-11-24T16:35:52.530Z,17.38
2022-11-24T16:38:19.662Z,13.30
2022-11-24T16:40:52.864Z,16.40
2022-11-24T16:43:19.626Z,17.83
2022-11-24T16:45:46.481Z,14.45
2022-11-24T16:48:12.935Z,16.77
2022-11-24T16:50:39.321Z,14.32
2022-11-24T16:53:05.808Z,13.55
2022-11-24T16:55:32.178Z,15.10
2022-11-24T16:57:58.539Z,14.50
2022-11-24T17:00:24.938Z,16.55
2022-11-24T17:02:51.482Z,22.15
2022-11-24T17:05:17.949Z,13.63
2022-11-24T17:07:44.401Z,14.02
2022-11-24T17:10:11.876Z,9.23
2022-11-24T17:12:38.406Z,9.32
2022-11-24T17:18:22.194Z,10.63
2022-11-24T17:20:38.347Z,16.48
2022-11-24T17:23:04.703Z,13.23
2022-11-24T17:25:32.279Z,11.80
2022-11-24T17:27:58.838Z,10.63
2022-11-24T17:30:25.311Z,13.38
2022-11-24T17:32:56.616Z,11.30
2022-11-24T17:35:23.587Z,11.85
2022-11-24T17:37:50.003Z,9.75
2022-11-24T17:40:34.358Z,13.77
2022-11-24T17:43:00.822Z,15.15
2022-11-24T17:45:29.045Z,14.73
2022-11-24T17:47:56.222Z,15.00
2022-11-24T17:50:26.131Z,16.77
2022-11-24T17:52:53.583Z,19.60
2022-11-24T17:55:20.048Z,15.40
2022-11-24T17:57:46.452Z,11.45
2022-11-24T18:00:13.532Z,17.27
2022-11-24T18:02:40.042Z,12.60
2022-11-24T18:05:06.835Z,13.80
2022-11-24T18:07:35.925Z,13.57
2022-11-24T18:10:02.333Z,12.13
2022-11-24T18:12:28.739Z,14.13
2022-11-24T18:14:55.201Z,13.30
2022-11-24T18:17:21.592Z,10.48
2022-11-24T18:19:47.959Z,11.05
2022-11-24T18:22:14.306Z,13.55
2022-11-24T18:24:40.947Z,15.27
2022-11-24T18:27:07.414Z,14.20
2022-11-24T18:29:33.819Z,17.13
2022-11-24T18:32:00.289Z,13.25
2022-11-24T18:34:26.781Z,17.42
2022-11-24T18:36:53.251Z,19.55
2022-11-24T18:39:19.667Z,12.93
2022-11-24T18:41:46.679Z,11.82
2022-11-24T18:44:13.088Z,12.73
2022-11-24T18:46:39.446Z,14.55
2022-11-24T18:49:06.919Z,12.25
2022-11-24T18:51:33.714Z,12.52
2022-11-24T18:54:02.005Z,12.25
2022-11-24T18:56:29.053Z,11.93
2022-11-24T18:58:56.300Z,14.30
2022-11-24T19:01:25.103Z,16.15
2022-11-24T19:03:54.014Z,11.23
2022-11-24T19:06:22.131Z,12.75
2022-11-24T19:08:48.891Z,14.18
2022-11-24T19:11:26.300Z,13.18
2022-11-24T19:13:52.745Z,13.27
2022-11-24T19:16:20.288Z,10.00
2022-11-24T19:18:53.634Z,11.10
2022-11-24T19:21:21.191Z,12.93
2022-11-24T19:23:47.797Z,12.73
2022-11-24T19:26:14.211Z,10.88
2022-11-24T19:28:40.576Z,8.68
2022-11-24T19:31:09.153Z,13.88
2022-11-24T19:33:36.426Z,12.95
2022-11-24T19:36:14.323Z,12.90
2022-11-24T19:38:41.818Z,12.13
2022-11-24T19:41:13.527Z,13.85
2022-11-24T19:43:40.722Z,14.90
2022-11-24T19:46:09.655Z,9.88
2022-11-24T19:48:43.656Z,11.07
2022-11-24T19:51:13.158Z,16.73
2022-11-24T19:53:39.625Z,9.00
2022-11-24T19:56:07.759Z,14.48
2022-11-24T19:58:34.787Z,13.43
2022-11-24T20:01:11.686Z,9.70
2022-11-24T20:03:39.062Z,11.77
2022-11-24T20:06:06.763Z,11.13
2022-11-24T20:08:34.551Z,12.05
2022-11-24T20:11:08.099Z,13.15
2022-11-24T20:13:35.942Z,14.93
2022-11-24T20:16:03.860Z,9.15
2022-11-24T20:18:31.574Z,11.05
2022-11-24T20:21:05.199Z,12.75
2022-11-24T20:23:31.979Z,11.48
2022-11-24T20:26:10.102Z,14.60
2022-11-24T20:28:37.015Z,10.25
2022-11-24T20:31:05.728Z,9.70
2022-11-24T20:33:32.230Z,13.27
2022-11-24T20:36:03.634Z,9.40
2022-11-24T20:38:30.720Z,8.80
2022-11-24T20:41:16.494Z,10.05
2022-11-24T20:43:44.177Z,11.43
2022-11-24T20:46:11.985Z,8.00
2022-11-24T20:48:38.971Z,12.48
2022-11-24T20:51:07.895Z,14.05
2022-11-24T20:53:35.166Z,12.55
2022-11-24T20:56:06.661Z,8.98
2022-11-24T20:58:34.502Z,9.68
2022-11-24T21:01:09.792Z,11.90
2022-11-24T21:03:42.598Z,13.50
2022-11-24T21:06:11.650Z,12.30
2022-11-24T21:08:39.153Z,8.18
2022-11-24T21:11:06.694Z,8.63
2022-11-24T21:13:34.454Z,10.68
2022-11-24T21:16:16.638Z,9.57
2022-11-24T21:18:44.582Z,12.98
2022-11-24T21:21:11.794Z,9.68
2022-11-24T21:23:38.374Z,9.95
2022-11-24T21:26:07.449Z,12.93
2022-11-24T21:28:36.848Z,10.27
2022-11-24T21:31:08.288Z,12.18
2022-11-24T21:33:38.547Z,18.85
2022-11-24T21:36:05.643Z,7.07
2022-11-24T21:38:32.059Z,7.30
2022-11-24T21:41:06.308Z,10.55
2022-11-24T21:43:33.185Z,13.68
2022-11-24T21:46:01.170Z,11.80
2022-11-24T21:48:27.618Z,14.27
2022-11-24T21:50:54.018Z,10.88
2022-11-24T21:53:20.383Z,9.98
2022-11-24T21:56:00.834Z,12.95
2022-11-24T21:58:27.995Z,13.18
2022-11-24T22:00:54.929Z,9.15
2022-11-24T22:03:21.594Z,10.52
2022-11-24T22:05:55.086Z,10.98
2022-11-24T22:08:22.145Z,10.48
2022-11-24T22:10:48.506Z,8.23
2022-11-24T22:13:15.033Z,9.05
2022-11-24T22:15:41.384Z,11.02
2022-11-24T22:18:07.781Z,8.95
2022-11-24T22:20:34.399Z,11.60
2022-11-24T22:23:00.752Z,10.23
2022-11-24T22:25:27.119Z,13.80
2022-11-24T22:27:53.490Z,13.30
2022-11-24T22:30:19.922Z,10.57
2022-11-24T22:32:46.335Z,11.65
2022-11-24T22:35:12.695Z,12.00
2022-11-24T22:37:39.104Z,14.82
2022-11-24T22:40:06.134Z,14.57
2022-11-24T22:42:32.481Z,9.57
2022-11-24T22:44:58.835Z,11.13
2022-11-24T22:47:25.336Z,14.98
2022-11-24T22:49:51.734Z,13.23
2022-11-24T22:52:18.141Z,14.65
2022-11-24T22:54:44.548Z,8.38
2022-11-24T22:57:10.945Z,11.48
2022-11-24T22:59:37.429Z,11.05
2022-11-24T23:02:03.787Z,13.40
2022-11-24T23:04:30.278Z,11.75
2022-11-24T23:06:56.740Z,11.88
2022-11-24T23:09:23.090Z,9.10
2022-11-24T23:11:49.510Z,11.27
2022-11-24T23:14:16.250Z,13.25
2022-11-24T23:16:43.087Z,11.55
2022-11-24T23:19:09.638Z,11.63
2022-11-24T23:21:38.183Z,9.18
2022-11-24T23:24:08.626Z,12.32
2022-11-24T23:26:37.045Z,12.98
2022-11-24T23:29:04.602Z,8.77
2022-11-24T23:31:31.219Z,12.15
2022-11-24T23:34:00.584Z,13.30
2022-11-24T23:36:27.919Z,12.15
2022-11-24T23:38:54.500Z,14.35
2022-11-24T23:41:23.291Z,13.18
2022-11-24T23:43:50.080Z,13.18
2022-11-24T23:46:17.681Z,13.23
2022-11-24T23:48:44.882Z,15.98
2022-11-24T23:51:16.836Z,13.25
2022-11-24T23:53:43.874Z,10.15
2022-11-24T23:56:16.042Z,12.23
2022-11-24T23:58:42.676Z,15.38
